TYS weather

McGhee Tyson Airport
Knoxville, Tennessee, United States

Public forecast

Using degrees Fahrenheit for public forecast. Weather courtesy of forecast.io.

Current aviation weather report (METAR) for McGhee Tyson Airport

Retrieved 2020/01/19 22:53 UTC (57 minutes ago):

KTYS 192253Z 29011KT 10SM FEW050 02/M08 A3024 RMK AO2 SLP245 T00171083

Aviation forecast (TAF) for McGhee Tyson Airport

Retrieved 2020/01/19 18:22 UTC (5 hours ago):

TAF KTYS 191720Z 1918/2018 26009KT P6SM SKC FM200200 35005KT P6SM SKC FM201600 01007KT P6SM SKC